createdAt,value
2018-03-06T00:01:48.738Z,20.73
2018-03-06T00:04:17.128Z,22.53
2018-03-06T00:06:45.393Z,20.53
2018-03-06T00:09:14.466Z,21.33
2018-03-06T00:11:42.823Z,20.63
2018-03-06T00:14:11.063Z,23.40
2018-03-06T00:16:40.095Z,20.67
2018-03-06T00:19:08.416Z,22.53
2018-03-06T00:21:37.456Z,24.57
2018-03-06T00:24:06.175Z,21.87
2018-03-06T00:26:34.467Z,23.13
2018-03-06T00:29:02.756Z,21.67
2018-03-06T00:31:31.055Z,21.33
2018-03-06T00:34:00.103Z,21.43
2018-03-06T00:36:28.402Z,20.47
2018-03-06T00:38:56.681Z,22.13
2018-03-06T00:41:24.999Z,21.73
2018-03-06T00:43:54.875Z,22.27
2018-03-06T00:46:23.152Z,22.20
2018-03-06T00:48:51.544Z,21.50
2018-03-06T00:51:19.919Z,22.97
2018-03-06T00:53:48.986Z,19.23
2018-03-06T00:56:17.260Z,21.57
2018-03-06T00:58:45.683Z,23.03
2018-03-06T01:01:13.972Z,20.77
2018-03-06T01:03:42.265Z,25.50
2018-03-06T01:06:10.571Z,20.80
2018-03-06T01:08:38.863Z,21.80
2018-03-06T01:11:07.165Z,22.30
2018-03-06T01:13:35.468Z,22.23
2018-03-06T01:16:04.502Z,21.40
2018-03-06T01:18:32.803Z,22.37
2018-03-06T01:21:01.537Z,21.87
2018-03-06T01:23:29.836Z,22.37
2018-03-06T01:25:58.154Z,24.40
2018-03-06T01:28:26.419Z,22.70
2018-03-06T01:30:54.733Z,21.17
2018-03-06T01:33:23.767Z,22.07
2018-03-06T01:35:52.044Z,23.70
2018-03-06T01:38:20.331Z,22.73
2018-03-06T01:40:48.605Z,22.03
2018-03-06T01:43:17.011Z,22.50
2018-03-06T01:45:45.291Z,22.20
2018-03-06T01:48:13.587Z,23.17
2018-03-06T01:50:41.873Z,22.33
2018-03-06T01:53:10.942Z,22.67
2018-03-06T01:55:39.250Z,24.33
2018-03-06T01:58:08.287Z,24.17
2018-03-06T02:00:36.592Z,21.40
2018-03-06T02:03:04.972Z,23.63
2018-03-06T02:05:33.287Z,25.63
2018-03-06T02:08:01.587Z,23.30
2018-03-06T02:10:29.864Z,23.00
2018-03-06T02:12:58.201Z,22.80
2018-03-06T02:15:27.247Z,23.20
2018-03-06T02:17:55.541Z,22.80
2018-03-06T02:20:23.816Z,21.93
2018-03-06T02:22:52.085Z,21.30
2018-03-06T02:25:20.377Z,23.17
2018-03-06T02:27:48.670Z,23.37
2018-03-06T02:30:16.979Z,22.47
2018-03-06T02:32:46.017Z,21.97
2018-03-06T02:35:14.281Z,22.00
2018-03-06T02:37:42.594Z,19.70
2018-03-06T02:40:10.870Z,21.07
2018-03-06T02:42:39.167Z,22.63
2018-03-06T02:45:08.229Z,23.20
2018-03-06T02:47:36.527Z,24.27
2018-03-06T02:50:04.796Z,22.90
2018-03-06T02:52:33.076Z,25.93
2018-03-06T02:55:01.451Z,26.10
2018-03-06T02:57:29.726Z,23.63
2018-03-06T02:59:58.112Z,25.83
2018-03-06T03:02:26.431Z,24.20
2018-03-06T03:04:54.731Z,24.50
2018-03-06T03:07:23.012Z,22.43
2018-03-06T03:09:51.284Z,23.77
2018-03-06T03:12:19.611Z,24.33
2018-03-06T03:14:48.691Z,23.20
2018-03-06T03:17:16.992Z,24.50
2018-03-06T03:19:46.031Z,23.80
2018-03-06T03:22:14.303Z,24.30
2018-03-06T03:24:42.598Z,24.63
2018-03-06T03:27:10.894Z,24.80
2018-03-06T03:29:39.200Z,23.10
2018-03-06T03:32:08.272Z,22.50
2018-03-06T03:34:36.531Z,23.27
2018-03-06T03:37:04.921Z,24.07
2018-03-06T03:39:33.204Z,25.63
2018-03-06T03:42:01.515Z,24.53
2018-03-06T03:44:29.802Z,24.70
2018-03-06T03:46:58.079Z,24.03
2018-03-06T03:49:26.371Z,23.63
2018-03-06T03:51:55.750Z,23.87
2018-03-06T03:54:24.044Z,23.90
2018-03-06T03:56:52.331Z,23.10
2018-03-06T03:59:20.654Z,26.97
2018-03-06T04:01:49.044Z,26.63
2018-03-06T04:04:18.132Z,22.50
2018-03-06T04:06:46.376Z,25.97
2018-03-06T04:09:14.675Z,23.33
2018-03-06T04:11:43.052Z,24.17
2018-03-06T04:14:11.540Z,25.40
2018-03-06T04:16:39.807Z,24.93
2018-03-06T04:19:08.099Z,26.30
2018-03-06T04:21:36.376Z,23.80
2018-03-06T04:24:04.674Z,26.43
2018-03-06T04:26:33.711Z,25.03
2018-03-06T04:29:02.020Z,25.73
2018-03-06T04:31:30.297Z,25.40
2018-03-06T04:33:58.574Z,25.87
2018-03-06T04:36:26.892Z,26.67
2018-03-06T04:38:55.928Z,27.70
2018-03-06T04:41:24.231Z,25.17
2018-03-06T04:43:53.298Z,27.20
2018-03-06T04:46:21.587Z,26.97
2018-03-06T04:48:49.872Z,26.20
2018-03-06T04:51:18.263Z,26.40
2018-03-06T04:53:46.555Z,24.67
2018-03-06T04:56:15.603Z,24.40
2018-03-06T04:58:43.969Z,24.00
2018-03-06T05:01:12.293Z,24.77
2018-03-06T05:03:40.588Z,25.17
2018-03-06T05:06:09.762Z,23.70
2018-03-06T05:08:38.039Z,30.03
2018-03-06T05:11:06.524Z,27.10
2018-03-06T05:13:34.813Z,27.43
2018-03-06T05:16:03.120Z,24.50
2018-03-06T05:18:31.399Z,24.83
2018-03-06T05:20:59.684Z,24.93
2018-03-06T05:23:27.988Z,25.27
2018-03-06T05:25:56.297Z,26.87
2018-03-06T05:28:25.383Z,24.93
2018-03-06T05:30:54.434Z,24.93
2018-03-06T05:33:22.857Z,25.83
2018-03-06T05:35:51.155Z,25.90
2018-03-06T05:38:19.857Z,27.43
2018-03-06T05:40:48.911Z,28.27
2018-03-06T05:43:17.204Z,22.40
2018-03-06T05:45:45.520Z,28.90
2018-03-06T05:48:13.860Z,27.73
2018-03-06T05:50:42.144Z,24.87
2018-03-06T05:53:11.202Z,24.87
2018-03-06T05:55:39.533Z,27.37
2018-03-06T05:58:08.698Z,25.60
2018-03-06T06:00:36.974Z,24.47
2018-03-06T06:03:06.080Z,27.80
2018-03-06T06:05:34.476Z,26.93
2018-03-06T06:08:03.653Z,26.60
2018-03-06T06:10:33.567Z,25.50
2018-03-06T06:13:01.872Z,25.40
2018-03-06T06:15:30.911Z,27.07
2018-03-06T06:17:59.173Z,26.23
2018-03-06T06:20:27.473Z,26.23
2018-03-06T06:22:55.748Z,25.40
2018-03-06T06:25:24.043Z,27.33
2018-03-06T06:27:52.339Z,26.87
2018-03-06T06:30:20.625Z,28.07
2018-03-06T06:32:48.901Z,28.37
2018-03-06T06:35:17.258Z,27.70
2018-03-06T06:37:45.641Z,28.57
2018-03-06T06:40:14.018Z,26.60
2018-03-06T06:42:42.301Z,25.03
2018-03-06T06:45:11.336Z,27.93
2018-03-06T06:47:39.624Z,26.03
2018-03-06T06:50:07.886Z,26.90
2018-03-06T06:52:36.167Z,26.53
2018-03-06T06:55:04.437Z,26.80
2018-03-06T06:57:33.524Z,25.37
2018-03-06T07:00:01.755Z,25.57
2018-03-06T07:02:30.036Z,25.93
2018-03-06T07:04:58.347Z,25.47
2018-03-06T07:07:26.623Z,27.23
2018-03-06T07:09:54.920Z,26.23
2018-03-06T07:12:23.947Z,28.70
2018-03-06T07:14:52.211Z,28.13
2018-03-06T07:17:20.500Z,28.43
2018-03-06T07:19:48.788Z,27.00
2018-03-06T07:22:17.072Z,25.50
2018-03-06T07:24:45.371Z,26.50
2018-03-06T07:27:13.655Z,30.13
2018-03-06T07:29:41.939Z,28.83
2018-03-06T07:32:10.295Z,27.13
2018-03-06T07:34:38.543Z,29.80
2018-03-06T07:37:06.831Z,27.20
2018-03-06T07:39:35.107Z,25.73
2018-03-06T07:42:03.384Z,26.33
2018-03-06T07:44:31.675Z,28.97
2018-03-06T07:46:59.936Z,26.63
2018-03-06T07:49:28.247Z,30.50
2018-03-06T07:51:56.614Z,31.00
2018-03-06T07:54:24.889Z,26.43
2018-03-06T07:56:53.159Z,27.57
2018-03-06T07:59:21.759Z,31.23
2018-03-06T08:01:50.827Z,27.50
2018-03-06T08:04:19.092Z,28.13
2018-03-06T08:06:47.387Z,28.47
2018-03-06T08:09:15.652Z,30.27
2018-03-06T08:11:43.960Z,25.90
2018-03-06T08:14:12.222Z,28.00
2018-03-06T08:16:40.484Z,26.83
2018-03-06T08:19:08.884Z,29.20
2018-03-06T08:21:37.189Z,29.77
2018-03-06T08:24:05.456Z,28.43
2018-03-06T08:26:35.248Z,27.47
2018-03-06T08:29:03.601Z,27.20
2018-03-06T08:31:31.879Z,28.60
2018-03-06T08:34:00.136Z,26.90
2018-03-06T08:36:28.485Z,26.60
2018-03-06T08:38:56.766Z,27.40
2018-03-06T08:41:25.806Z,28.00
2018-03-06T08:43:54.094Z,30.10
2018-03-06T08:46:22.363Z,31.40
2018-03-06T08:48:50.874Z,28.37
2018-03-06T08:51:19.158Z,26.37
2018-03-06T08:53:47.423Z,28.97
2018-03-06T08:56:15.735Z,28.90
2018-03-06T08:58:44.198Z,25.17
2018-03-06T09:01:12.476Z,26.87
2018-03-06T09:03:40.824Z,26.93
2018-03-06T09:06:09.231Z,28.43
2018-03-06T09:08:37.712Z,27.40
2018-03-06T09:11:05.997Z,30.13
2018-03-06T09:13:35.083Z,29.60
2018-03-06T09:16:03.374Z,34.30
2018-03-06T09:18:32.455Z,28.90
2018-03-06T09:21:00.835Z,27.40
2018-03-06T09:23:29.108Z,28.67
2018-03-06T09:25:57.490Z,28.57
2018-03-06T09:28:25.770Z,26.83
2018-03-06T09:30:54.051Z,29.13
2018-03-06T09:33:22.338Z,28.17
2018-03-06T09:35:52.148Z,28.27
2018-03-06T09:38:20.514Z,27.50
2018-03-06T09:40:48.759Z,29.47
2018-03-06T09:43:17.037Z,27.30
2018-03-06T09:45:51.133Z,28.30
2018-03-06T09:48:20.178Z,27.07
2018-03-06T09:50:48.557Z,28.10
2018-03-06T09:53:16.838Z,30.20
2018-03-06T09:55:45.867Z,29.93
2018-03-06T09:58:14.892Z,28.60
2018-03-06T10:00:43.173Z,29.13
2018-03-06T10:03:11.431Z,30.30
2018-03-06T10:05:39.720Z,28.63
2018-03-06T10:08:07.991Z,27.50
2018-03-06T10:10:36.307Z,31.27
2018-03-06T10:13:04.599Z,30.37
2018-03-06T10:15:33.667Z,29.13
2018-03-06T10:18:01.946Z,30.93
2018-03-06T10:20:30.236Z,28.30
2018-03-06T10:22:58.495Z,29.23
2018-03-06T10:25:26.823Z,29.10
2018-03-06T10:27:55.913Z,32.10
2018-03-06T10:30:24.205Z,30.67
2018-03-06T10:32:53.247Z,30.00
2018-03-06T10:35:21.538Z,27.13
2018-03-06T10:37:49.916Z,28.10
2018-03-06T10:40:18.163Z,26.87
2018-03-06T10:42:47.147Z,27.97
2018-03-06T10:45:15.423Z,28.63
2018-03-06T10:47:43.766Z,27.53
2018-03-06T10:50:12.837Z,26.90
2018-03-06T10:52:41.108Z,26.30
2018-03-06T10:55:09.419Z,29.50
2018-03-06T10:57:37.758Z,27.80
2018-03-06T11:00:06.016Z,28.40
2018-03-06T11:02:40.055Z,30.57
2018-03-06T11:05:08.315Z,31.60
2018-03-06T11:07:36.596Z,28.23
2018-03-06T11:10:04.868Z,32.70
2018-03-06T11:12:33.161Z,31.60
2018-03-06T11:15:01.417Z,31.57
2018-03-06T11:17:29.752Z,31.40
2018-03-06T11:19:59.508Z,32.17
2018-03-06T11:22:27.791Z,29.07
2018-03-06T11:24:56.053Z,31.83
2018-03-06T11:27:24.310Z,31.70
2018-03-06T11:29:53.374Z,28.00
2018-03-06T11:32:21.633Z,31.20
2018-03-06T11:34:50.333Z,31.63
2018-03-06T11:37:18.612Z,29.80
2018-03-06T11:39:47.083Z,31.40
2018-03-06T11:42:15.358Z,30.80
2018-03-06T11:44:43.745Z,30.70
2018-03-06T11:47:12.020Z,31.50
2018-03-06T11:49:40.285Z,32.97
2018-03-06T11:52:08.541Z,30.17
2018-03-06T11:54:36.820Z,30.20
2018-03-06T11:57:05.100Z,28.57
2018-03-06T11:59:33.381Z,29.63
2018-03-06T12:02:01.684Z,29.43
2018-03-06T12:04:30.162Z,28.07
2018-03-06T12:06:58.439Z,29.50
2018-03-06T12:09:26.693Z,29.03
2018-03-06T12:11:54.980Z,30.97
2018-03-06T12:14:23.693Z,28.57
2018-03-06T12:16:53.463Z,28.00
2018-03-06T12:19:21.739Z,29.00
2018-03-06T12:21:50.043Z,29.57
2018-03-06T12:24:18.324Z,31.73
2018-03-06T12:26:46.602Z,30.50
2018-03-06T12:29:14.883Z,29.83
2018-03-06T12:31:43.155Z,30.20
2018-03-06T12:34:11.417Z,29.70
2018-03-06T12:36:39.704Z,33.93
2018-03-06T12:39:07.974Z,32.17
2018-03-06T12:41:36.265Z,34.20
2018-03-06T12:44:04.520Z,33.43
2018-03-06T12:46:32.787Z,33.87
2018-03-06T12:49:01.112Z,34.07
2018-03-06T12:51:29.373Z,32.43
2018-03-06T12:53:57.755Z,32.10
2018-03-06T12:56:26.004Z,34.30
2018-03-06T12:58:54.331Z,33.47
2018-03-06T13:01:23.606Z,30.57
2018-03-06T13:03:51.859Z,31.30
2018-03-06T13:06:20.161Z,31.93
2018-03-06T13:08:48.412Z,30.97
2018-03-06T13:11:16.725Z,32.00
2018-03-06T13:13:44.996Z,32.13
2018-03-06T13:16:13.278Z,33.33
2018-03-06T13:18:41.752Z,31.40
2018-03-06T13:21:10.029Z,31.40
2018-03-06T13:23:38.323Z,32.00
2018-03-06T13:26:06.584Z,33.67
2018-03-06T13:28:34.875Z,33.10
2018-03-06T13:31:03.229Z,34.77
2018-03-06T13:33:31.499Z,34.53
2018-03-06T13:35:59.772Z,34.10
2018-03-06T13:38:28.172Z,33.80
2018-03-06T13:40:56.477Z,38.57
2018-03-06T13:43:24.889Z,35.77
2018-03-06T13:45:53.161Z,40.00
2018-03-06T13:48:21.420Z,37.00
2018-03-06T13:50:50.455Z,39.17
2018-03-06T13:53:18.765Z,40.57
2018-03-06T13:55:47.136Z,40.67
2018-03-06T13:58:15.413Z,40.77
2018-03-06T14:00:43.797Z,43.73
2018-03-06T14:03:12.052Z,43.43
2018-03-06T14:05:40.311Z,44.50
2018-03-06T14:08:08.604Z,45.37
2018-03-06T14:10:36.903Z,40.37
2018-03-06T14:13:05.275Z,46.70
2018-03-06T14:15:33.660Z,43.20
2018-03-06T14:18:02.047Z,45.77
2018-03-06T14:20:30.425Z,47.43
2018-03-06T14:22:58.798Z,46.27
2018-03-06T14:25:27.151Z,48.47
2018-03-06T14:27:55.556Z,48.17
2018-03-06T14:30:23.828Z,46.60
2018-03-06T14:32:52.092Z,50.80
2018-03-06T14:35:20.376Z,52.67
2018-03-06T14:37:48.670Z,49.03
2018-03-06T14:40:16.934Z,48.13
2018-03-06T14:42:45.214Z,46.27
2018-03-06T14:45:13.498Z,48.00
2018-03-06T14:47:41.756Z,45.47
2018-03-06T14:50:10.044Z,45.87
2018-03-06T14:52:38.339Z,46.93
2018-03-06T14:55:06.637Z,44.27
2018-03-06T14:57:36.443Z,43.37
2018-03-06T15:00:05.617Z,45.90
2018-03-06T15:02:33.897Z,41.23
2018-03-06T15:05:02.160Z,44.70
2018-03-06T15:07:30.548Z,41.77
2018-03-06T15:09:58.807Z,42.30
2018-03-06T15:12:27.207Z,42.70
2018-03-06T15:14:55.466Z,41.10
2018-03-06T15:17:23.740Z,42.87
2018-03-06T15:19:52.004Z,42.30
2018-03-06T15:22:20.304Z,43.70
2018-03-06T15:24:48.596Z,42.40
2018-03-06T15:27:16.978Z,42.00
2018-03-06T15:29:45.225Z,44.00
2018-03-06T15:32:13.530Z,43.73
2018-03-06T15:34:41.805Z,40.97
2018-03-06T15:37:10.284Z,42.67
2018-03-06T15:39:38.562Z,43.80
2018-03-06T15:42:06.841Z,44.73
2018-03-06T15:44:35.136Z,42.50
2018-03-06T15:47:04.899Z,45.27
2018-03-06T15:49:33.225Z,42.33
2018-03-06T15:52:02.265Z,45.70
2018-03-06T15:54:30.571Z,47.07
2018-03-06T15:56:58.832Z,46.47
2018-03-06T15:59:27.135Z,47.70
2018-03-06T16:01:55.444Z,48.43
2018-03-06T16:04:24.511Z,49.57
2018-03-06T16:06:52.888Z,48.83
2018-03-06T16:09:21.162Z,48.10
2018-03-06T16:11:49.456Z,47.70
2018-03-06T16:14:18.484Z,44.03
2018-03-06T16:16:46.751Z,49.27
2018-03-06T16:19:15.843Z,47.00
2018-03-06T16:21:44.083Z,49.70
2018-03-06T16:24:12.376Z,49.37
2018-03-06T16:26:42.277Z,46.30
2018-03-06T16:29:10.585Z,49.27
2018-03-06T16:31:39.041Z,53.43
2018-03-06T16:34:07.320Z,53.17
2018-03-06T16:36:35.593Z,55.63
2018-03-06T16:39:03.903Z,51.53
2018-03-06T16:41:32.936Z,50.20
2018-03-06T16:44:01.231Z,52.00
2018-03-06T16:46:29.623Z,48.27
2018-03-06T16:48:57.993Z,54.70
2018-03-06T16:51:26.268Z,54.67
2018-03-06T16:53:54.556Z,56.00
2018-03-06T16:56:22.831Z,54.40
2018-03-06T16:58:51.199Z,51.27
2018-03-06T17:01:19.513Z,54.23
2018-03-06T17:03:48.705Z,50.73
2018-03-06T17:06:17.760Z,53.77
2018-03-06T17:08:46.037Z,51.93
2018-03-06T17:11:14.321Z,56.07
2018-03-06T17:13:42.607Z,54.40
2018-03-06T17:16:10.896Z,55.27
2018-03-06T17:18:39.274Z,56.70
2018-03-06T17:21:07.652Z,56.53
2018-03-06T17:23:35.936Z,55.50
2018-03-06T17:26:04.224Z,55.57
2018-03-06T17:28:33.275Z,53.73
2018-03-06T17:31:01.684Z,54.67
2018-03-06T17:33:29.972Z,57.80
2018-03-06T17:35:58.293Z,57.80
2018-03-06T17:38:26.584Z,56.20
2018-03-06T17:40:54.897Z,55.33
2018-03-06T17:43:23.286Z,56.30
2018-03-06T17:45:52.455Z,56.30
2018-03-06T17:48:20.744Z,55.30
2018-03-06T17:50:49.015Z,60.13
2018-03-06T17:53:17.320Z,58.37
2018-03-06T17:55:45.601Z,55.20
2018-03-06T17:58:14.685Z,54.37
2018-03-06T18:00:43.723Z,55.20
2018-03-06T18:03:12.019Z,52.33
2018-03-06T18:05:40.322Z,51.40
2018-03-06T18:08:08.624Z,50.53
2018-03-06T18:10:37.703Z,52.37
2018-03-06T18:13:05.978Z,51.57
2018-03-06T18:15:34.256Z,55.73
2018-03-06T18:18:02.542Z,53.43
2018-03-06T18:20:30.934Z,50.20
2018-03-06T18:22:59.289Z,49.37
2018-03-06T18:25:27.672Z,50.27
2018-03-06T18:27:55.944Z,47.60
2018-03-06T18:30:24.232Z,48.00
2018-03-06T18:32:52.508Z,46.77
2018-03-06T18:35:20.800Z,46.27
2018-03-06T18:37:49.077Z,49.67
2018-03-06T18:40:18.134Z,52.77
2018-03-06T18:42:46.425Z,44.03
2018-03-06T18:45:14.708Z,46.63
2018-03-06T18:47:42.989Z,45.40
2018-03-06T18:50:23.344Z,46.30
2018-03-06T18:52:51.597Z,44.13
2018-03-06T18:55:20.000Z,43.97
2018-03-06T18:57:48.277Z,41.27
2018-03-06T19:03:36.984Z,40.10
2018-03-06T19:06:17.999Z,42.23
2018-03-06T19:08:46.260Z,41.30
2018-03-06T19:11:14.552Z,43.43
2018-03-06T19:13:42.812Z,40.50
2018-03-06T19:16:11.101Z,45.07
2018-03-06T19:18:39.363Z,41.27
2018-03-06T19:21:07.658Z,43.10
2018-03-06T19:23:35.924Z,39.90
2018-03-06T19:26:04.361Z,39.87
2018-03-06T19:28:32.620Z,40.03
2018-03-06T19:31:01.028Z,42.90
2018-03-06T19:33:29.346Z,39.37
2018-03-06T19:35:57.664Z,42.07
2018-03-06T19:38:25.940Z,37.77
2018-03-06T19:40:54.203Z,39.80
2018-03-06T19:43:22.524Z,40.50
2018-03-06T19:45:50.997Z,36.83
2018-03-06T19:48:19.272Z,38.00
2018-03-06T19:50:47.608Z,33.80
2018-03-06T19:53:15.930Z,34.07
2018-03-06T19:55:44.215Z,36.43
2018-03-06T19:58:12.525Z,36.60
2018-03-06T20:00:40.788Z,32.03
2018-03-06T20:03:09.075Z,35.30
2018-03-06T20:05:37.344Z,32.47
2018-03-06T20:08:05.780Z,32.23
2018-03-06T20:10:34.068Z,30.30
2018-03-06T20:13:02.351Z,31.50
2018-03-06T20:15:30.630Z,32.70
2018-03-06T20:17:58.904Z,33.27
2018-03-06T20:20:27.187Z,30.73
2018-03-06T20:22:56.228Z,32.30
2018-03-06T20:25:30.343Z,32.60
2018-03-06T20:27:58.608Z,31.30
2018-03-06T20:30:32.526Z,32.47
2018-03-06T20:33:06.402Z,32.10
2018-03-06T20:35:35.479Z,30.20
2018-03-06T20:38:03.763Z,30.80
2018-03-06T20:40:33.831Z,29.33
2018-03-06T20:43:02.100Z,31.00
2018-03-06T20:45:36.160Z,31.30
2018-03-06T20:48:04.735Z,29.47
2018-03-06T20:50:33.962Z,30.73
2018-03-06T20:53:08.036Z,30.00
2018-03-06T20:55:36.425Z,29.80
2018-03-06T20:58:04.807Z,31.40
2018-03-06T21:00:33.216Z,32.17
2018-03-06T21:03:01.484Z,29.87
2018-03-06T21:05:30.544Z,30.27
2018-03-06T21:07:58.909Z,28.23
2018-03-06T21:10:27.224Z,27.80
2018-03-06T21:12:55.507Z,28.07
2018-03-06T21:15:23.854Z,29.20
2018-03-06T21:17:52.151Z,28.03
2018-03-06T21:20:20.421Z,27.43
2018-03-06T21:22:48.705Z,27.93
2018-03-06T21:25:16.985Z,28.20
2018-03-06T21:27:46.788Z,24.47
2018-03-06T21:30:15.185Z,26.07
2018-03-06T21:32:43.516Z,25.40
2018-03-06T21:35:11.772Z,23.70
2018-03-06T21:37:40.926Z,23.00
2018-03-06T21:40:09.184Z,22.90
2018-03-06T21:42:37.481Z,23.10
2018-03-06T21:45:05.860Z,26.30
2018-03-06T21:47:34.133Z,24.67
2018-03-06T21:50:02.454Z,25.23
2018-03-06T21:52:31.514Z,25.30
2018-03-06T21:55:00.676Z,23.30
2018-03-06T21:57:28.944Z,24.57
2018-03-06T21:59:57.363Z,25.13
2018-03-06T22:02:25.613Z,26.97
2018-03-06T22:04:53.916Z,23.57
2018-03-06T22:07:22.191Z,25.77
2018-03-06T22:09:50.574Z,24.50
2018-03-06T22:12:18.843Z,23.57
2018-03-06T22:14:47.232Z,21.03
2018-03-06T22:17:15.512Z,24.10
2018-03-06T22:19:43.895Z,23.13
2018-03-06T22:22:12.191Z,23.40
2018-03-06T22:24:41.216Z,23.20
2018-03-06T22:27:09.505Z,22.87
2018-03-06T22:29:37.767Z,22.70
2018-03-06T22:32:06.094Z,24.47
2018-03-06T22:34:34.474Z,21.17
2018-03-06T22:37:02.752Z,23.17
2018-03-06T22:39:31.145Z,23.27
2018-03-06T22:42:00.189Z,23.27
2018-03-06T22:44:28.465Z,22.37
2018-03-06T22:46:56.723Z,23.00
2018-03-06T22:49:25.072Z,23.80
2018-03-06T22:51:54.124Z,21.97
2018-03-06T22:54:22.403Z,21.40
2018-03-06T22:56:50.692Z,21.80
2018-03-06T22:59:18.984Z,22.80
2018-03-06T23:01:47.266Z,25.70
2018-03-06T23:04:15.541Z,21.60
2018-03-06T23:06:43.917Z,22.70
2018-03-06T23:09:12.193Z,21.30
2018-03-06T23:11:40.572Z,23.57
2018-03-06T23:14:08.847Z,24.77
2018-03-06T23:16:37.129Z,23.33
2018-03-06T23:19:05.436Z,23.97
2018-03-06T23:21:34.499Z,21.80
2018-03-06T23:24:02.824Z,22.10
2018-03-06T23:26:31.989Z,24.20
2018-03-06T23:29:00.356Z,21.60
2018-03-06T23:31:28.625Z,22.60
2018-03-06T23:33:56.910Z,24.40
2018-03-06T23:36:25.398Z,22.70
2018-03-06T23:38:53.738Z,21.70
2018-03-06T23:41:22.154Z,24.50
2018-03-06T23:43:50.533Z,22.50
2018-03-06T23:46:18.868Z,23.90
2018-03-06T23:48:47.137Z,21.37
2018-03-06T23:51:15.438Z,23.50
2018-03-06T23:53:43.848Z,23.63
2018-03-06T23:56:12.133Z,24.53
2018-03-06T23:58:40.466Z,24.77
